sensor_id;sensor_type;location;lat;lon;timestamp;temperature;humidity
16823;DHT22;8528;49.976;11.858;2023-01-16T00:01:45;1.80;99.90
16823;DHT22;8528;49.976;11.858;2023-01-16T00:04:12;1.80;99.90
16823;DHT22;8528;49.976;11.858;2023-01-16T00:06:39;1.70;99.90
16823;DHT22;8528;49.976;11.858;2023-01-16T00:09:07;1.70;99.90
16823;DHT22;8528;49.976;11.858;2023-01-16T00:11:34;1.70;99.90
16823;DHT22;8528;49.976;11.858;2023-01-16T00:14:01;1.60;99.90
16823;DHT22;8528;49.976;11.858;2023-01-16T00:16:28;1.60;99.90
16823;DHT22;8528;49.976;11.858;2023-01-16T00:18:55;1.60;99.90
16823;DHT22;8528;49.976;11.858;2023-01-16T00:21:23;1.50;99.90
16823;DHT22;8528;49.976;11.858;2023-01-16T00:27:10;1.40;99.90
16823;DHT22;8528;49.976;11.858;2023-01-16T00:29:37;1.30;99.90
16823;DHT22;8528;49.976;11.858;2023-01-16T00:32:04;1.20;99.90
16823;DHT22;8528;49.976;11.858;2023-01-16T00:34:31;1.20;99.90
16823;DHT22;8528;49.976;11.858;2023-01-16T00:36:57;1.20;99.90
16823;DHT22;8528;49.976;11.858;2023-01-16T00:39:24;1.30;99.90
16823;DHT22;8528;49.976;11.858;2023-01-16T00:41:51;1.30;99.90
16823;DHT22;8528;49.976;11.858;2023-01-16T00:44:18;1.30;99.90
16823;DHT22;8528;49.976;11.858;2023-01-16T00:46:45;1.30;99.90
16823;DHT22;8528;49.976;11.858;2023-01-16T00:49:13;1.30;99.90
16823;DHT22;8528;49.976;11.858;2023-01-16T00:51:39;1.30;99.90
16823;DHT22;8528;49.976;11.858;2023-01-16T00:54:06;1.30;99.90
16823;DHT22;8528;49.976;11.858;2023-01-16T00:56:33;1.30;99.90
16823;DHT22;8528;49.976;11.858;2023-01-16T00:59:00;1.40;99.90
16823;DHT22;8528;49.976;11.858;2023-01-16T01:01:27;1.40;99.90
16823;DHT22;8528;49.976;11.858;2023-01-16T01:03:54;1.40;99.90
16823;DHT22;8528;49.976;11.858;2023-01-16T01:06:20;1.40;99.90
16823;DHT22;8528;49.976;11.858;2023-01-16T01:08:47;1.30;99.90
16823;DHT22;8528;49.976;11.858;2023-01-16T01:11:14;1.30;99.90
16823;DHT22;8528;49.976;11.858;2023-01-16T01:13:42;1.20;99.90
16823;DHT22;8528;49.976;11.858;2023-01-16T01:16:10;1.20;99.90
16823;DHT22;8528;49.976;11.858;2023-01-16T01:18:38;1.20;99.90
16823;DHT22;8528;49.976;11.858;2023-01-16T01:21:05;1.10;99.90
16823;DHT22;8528;49.976;11.858;2023-01-16T01:23:32;1.00;99.90
16823;DHT22;8528;49.976;11.858;2023-01-16T01:26:05;1.00;99.90
16823;DHT22;8528;49.976;11.858;2023-01-16T01:28:32;1.00;99.90
16823;DHT22;8528;49.976;11.858;2023-01-16T01:31:08;1.00;99.90
16823;DHT22;8528;49.976;11.858;2023-01-16T01:33:35;0.90;99.90
16823;DHT22;8528;49.976;11.858;2023-01-16T01:36:04;0.90;99.90
16823;DHT22;8528;49.976;11.858;2023-01-16T01:38:31;0.90;99.90
16823;DHT22;8528;49.976;11.858;2023-01-16T01:40:58;0.90;99.90
16823;DHT22;8528;49.976;11.858;2023-01-16T01:43:40;0.90;99.90
16823;DHT22;8528;49.976;11.858;2023-01-16T01:46:52;0.90;99.90
16823;DHT22;8528;49.976;11.858;2023-01-16T01:49:05;0.80;99.90
16823;DHT22;8528;49.976;11.858;2023-01-16T01:51:36;0.80;99.90
16823;DHT22;8528;49.976;11.858;2023-01-16T01:54:14;0.90;99.90
16823;DHT22;8528;49.976;11.858;2023-01-16T01:56:52;0.90;99.90
16823;DHT22;8528;49.976;11.858;2023-01-16T01:59:25;1.00;99.90
16823;DHT22;8528;49.976;11.858;2023-01-16T02:01:54;1.00;99.90
16823;DHT22;8528;49.976;11.858;2023-01-16T02:04:25;1.00;99.90
16823;DHT22;8528;49.976;11.858;2023-01-16T02:06:56;1.00;99.90
16823;DHT22;8528;49.976;11.858;2023-01-16T02:09:24;1.00;99.90
16823;DHT22;8528;49.976;11.858;2023-01-16T02:12:03;1.00;99.90
16823;DHT22;8528;49.976;11.858;2023-01-16T02:14:35;1.00;99.90
16823;DHT22;8528;49.976;11.858;2023-01-16T02:17:08;0.90;99.90
16823;DHT22;8528;49.976;11.858;2023-01-16T02:31:24;0.80;99.90
16823;DHT22;8528;49.976;11.858;2023-01-16T02:34:29;0.70;99.90
16823;DHT22;8528;49.976;11.858;2023-01-16T02:39:59;0.70;99.90
16823;DHT22;8528;49.976;11.858;2023-01-16T02:43:13;0.70;99.90
16823;DHT22;8528;49.976;11.858;2023-01-16T02:51:36;0.60;99.90
16823;DHT22;8528;49.976;11.858;2023-01-16T02:54:16;0.60;99.90
16823;DHT22;8528;49.976;11.858;2023-01-16T02:56:48;0.50;99.90
16823;DHT22;8528;49.976;11.858;2023-01-16T02:59:18;0.50;99.90
16823;DHT22;8528;49.976;11.858;2023-01-16T03:01:49;0.40;99.90
16823;DHT22;8528;49.976;11.858;2023-01-16T03:09:46;0.30;99.90
16823;DHT22;8528;49.976;11.858;2023-01-16T03:12:27;0.30;99.90
16823;DHT22;8528;49.976;11.858;2023-01-16T03:15:03;0.30;99.90
16823;DHT22;8528;49.976;11.858;2023-01-16T03:17:40;0.20;99.90
16823;DHT22;8528;49.976;11.858;2023-01-16T03:25:48;0.30;99.90
16823;DHT22;8528;49.976;11.858;2023-01-16T03:28:34;0.20;99.90
16823;DHT22;8528;49.976;11.858;2023-01-16T03:34:06;0.20;99.90
16823;DHT22;8528;49.976;11.858;2023-01-16T03:39:36;0.20;99.90
16823;DHT22;8528;49.976;11.858;2023-01-16T03:42:09;0.20;99.90
16823;DHT22;8528;49.976;11.858;2023-01-16T03:44:41;0.20;99.90
16823;DHT22;8528;49.976;11.858;2023-01-16T03:47:11;0.20;99.90
16823;DHT22;8528;49.976;11.858;2023-01-16T03:49:43;0.20;99.90
16823;DHT22;8528;49.976;11.858;2023-01-16T03:52:14;0.20;99.90
16823;DHT22;8528;49.976;11.858;2023-01-16T03:57:53;0.20;99.90
16823;DHT22;8528;49.976;11.858;2023-01-16T04:00:21;0.30;99.90
16823;DHT22;8528;49.976;11.858;2023-01-16T04:02:57;0.30;99.90
16823;DHT22;8528;49.976;11.858;2023-01-16T04:05:30;0.30;99.90
16823;DHT22;8528;49.976;11.858;2023-01-16T04:08:10;0.30;99.90
16823;DHT22;8528;49.976;11.858;2023-01-16T04:10:41;0.30;99.90
16823;DHT22;8528;49.976;11.858;2023-01-16T04:13:12;0.20;99.90
16823;DHT22;8528;49.976;11.858;2023-01-16T04:15:48;0.20;99.90
16823;DHT22;8528;49.976;11.858;2023-01-16T04:18:16;0.20;99.90
16823;DHT22;8528;49.976;11.858;2023-01-16T04:20:46;0.20;99.90
16823;DHT22;8528;49.976;11.858;2023-01-16T04:23:13;0.20;99.90
16823;DHT22;8528;49.976;11.858;2023-01-16T04:25:46;0.20;99.90
16823;DHT22;8528;49.976;11.858;2023-01-16T04:28:13;0.10;99.90
16823;DHT22;8528;49.976;11.858;2023-01-16T04:30:40;0.10;99.90
16823;DHT22;8528;49.976;11.858;2023-01-16T04:33:07;0.00;99.90
16823;DHT22;8528;49.976;11.858;2023-01-16T04:35:34;0.00;99.90
16823;DHT22;8528;49.976;11.858;2023-01-16T04:38:01;-0.10;99.90
16823;DHT22;8528;49.976;11.858;2023-01-16T04:40:28;0.00;99.90
16823;DHT22;8528;49.976;11.858;2023-01-16T04:42:55;-0.20;99.90
16823;DHT22;8528;49.976;11.858;2023-01-16T04:45:23;-0.20;99.90
16823;DHT22;8528;49.976;11.858;2023-01-16T04:47:50;-0.20;99.90
16823;DHT22;8528;49.976;11.858;2023-01-16T04:50:18;-0.20;99.90
16823;DHT22;8528;49.976;11.858;2023-01-16T04:52:46;-0.20;99.90
16823;DHT22;8528;49.976;11.858;2023-01-16T04:55:13;-0.10;99.90
16823;DHT22;8528;49.976;11.858;2023-01-16T04:57:40;-0.10;99.90
16823;DHT22;8528;49.976;11.858;2023-01-16T05:00:10;0.00;99.90
16823;DHT22;8528;49.976;11.858;2023-01-16T05:02:37;0.00;99.90
16823;DHT22;8528;49.976;11.858;2023-01-16T05:05:04;0.20;99.90
16823;DHT22;8528;49.976;11.858;2023-01-16T05:07:31;0.20;99.90
16823;DHT22;8528;49.976;11.858;2023-01-16T05:09:59;0.20;99.90
16823;DHT22;8528;49.976;11.858;2023-01-16T05:12:26;0.20;99.90
16823;DHT22;8528;49.976;11.858;2023-01-16T05:14:53;0.20;99.90
16823;DHT22;8528;49.976;11.858;2023-01-16T05:17:20;0.30;99.90
16823;DHT22;8528;49.976;11.858;2023-01-16T05:19:50;0.40;99.90
16823;DHT22;8528;49.976;11.858;2023-01-16T05:22:18;0.30;99.90
16823;DHT22;8528;49.976;11.858;2023-01-16T05:24:45;0.40;99.90
16823;DHT22;8528;49.976;11.858;2023-01-16T05:27:11;0.40;99.90
16823;DHT22;8528;49.976;11.858;2023-01-16T05:29:38;0.30;99.90
16823;DHT22;8528;49.976;11.858;2023-01-16T05:32:05;0.40;99.90
16823;DHT22;8528;49.976;11.858;2023-01-16T05:34:32;0.40;99.90
16823;DHT22;8528;49.976;11.858;2023-01-16T05:36:59;0.40;99.90
16823;DHT22;8528;49.976;11.858;2023-01-16T05:39:26;0.50;99.90
16823;DHT22;8528;49.976;11.858;2023-01-16T05:41:53;0.50;99.90
16823;DHT22;8528;49.976;11.858;2023-01-16T05:44:19;0.50;99.90
16823;DHT22;8528;49.976;11.858;2023-01-16T05:46:46;0.50;99.90
16823;DHT22;8528;49.976;11.858;2023-01-16T05:49:13;0.50;99.90
16823;DHT22;8528;49.976;11.858;2023-01-16T05:51:40;0.50;99.90
16823;DHT22;8528;49.976;11.858;2023-01-16T05:54:11;0.50;99.90
16823;DHT22;8528;49.976;11.858;2023-01-16T05:56:38;0.50;99.90
16823;DHT22;8528;49.976;11.858;2023-01-16T05:59:06;0.50;99.90
16823;DHT22;8528;49.976;11.858;2023-01-16T06:01:33;0.60;99.90
16823;DHT22;8528;49.976;11.858;2023-01-16T06:04:00;0.60;99.90
16823;DHT22;8528;49.976;11.858;2023-01-16T06:06:27;0.60;99.90
16823;DHT22;8528;49.976;11.858;2023-01-16T06:08:54;0.60;99.90
16823;DHT22;8528;49.976;11.858;2023-01-16T06:11:21;0.60;99.90
16823;DHT22;8528;49.976;11.858;2023-01-16T06:13:48;0.60;99.90
16823;DHT22;8528;49.976;11.858;2023-01-16T06:16:15;0.60;99.90
16823;DHT22;8528;49.976;11.858;2023-01-16T06:18:41;0.60;99.90
16823;DHT22;8528;49.976;11.858;2023-01-16T06:21:08;0.60;99.90
16823;DHT22;8528;49.976;11.858;2023-01-16T06:23:35;0.50;99.90
16823;DHT22;8528;49.976;11.858;2023-01-16T06:26:02;0.60;99.90
16823;DHT22;8528;49.976;11.858;2023-01-16T06:28:32;0.50;99.90
16823;DHT22;8528;49.976;11.858;2023-01-16T06:30:59;0.50;99.90
16823;DHT22;8528;49.976;11.858;2023-01-16T06:33:25;0.50;99.90
16823;DHT22;8528;49.976;11.858;2023-01-16T06:35:53;0.50;99.90
16823;DHT22;8528;49.976;11.858;2023-01-16T06:38:20;0.40;99.90
16823;DHT22;8528;49.976;11.858;2023-01-16T06:40:46;0.40;99.90
16823;DHT22;8528;49.976;11.858;2023-01-16T06:43:13;0.50;99.90
16823;DHT22;8528;49.976;11.858;2023-01-16T06:45:43;0.50;99.90
16823;DHT22;8528;49.976;11.858;2023-01-16T06:48:12;0.40;99.90
16823;DHT22;8528;49.976;11.858;2023-01-16T06:50:38;0.40;99.90
16823;DHT22;8528;49.976;11.858;2023-01-16T06:53:05;0.40;99.90
16823;DHT22;8528;49.976;11.858;2023-01-16T06:55:32;0.50;99.90
16823;DHT22;8528;49.976;11.858;2023-01-16T06:57:59;0.50;99.90
16823;DHT22;8528;49.976;11.858;2023-01-16T07:00:26;0.50;99.90
16823;DHT22;8528;49.976;11.858;2023-01-16T07:02:54;0.50;99.90
16823;DHT22;8528;49.976;11.858;2023-01-16T07:05:22;0.50;99.90
16823;DHT22;8528;49.976;11.858;2023-01-16T07:07:49;0.50;99.90
16823;DHT22;8528;49.976;11.858;2023-01-16T07:10:17;0.50;99.90
16823;DHT22;8528;49.976;11.858;2023-01-16T07:12:51;0.40;99.90
16823;DHT22;8528;49.976;11.858;2023-01-16T07:15:19;0.40;99.90
16823;DHT22;8528;49.976;11.858;2023-01-16T07:18:05;0.40;99.90
16823;DHT22;8528;49.976;11.858;2023-01-16T07:20:55;0.40;99.90
16823;DHT22;8528;49.976;11.858;2023-01-16T07:23:45;0.40;99.90
16823;DHT22;8528;49.976;11.858;2023-01-16T07:26:14;0.30;99.90
16823;DHT22;8528;49.976;11.858;2023-01-16T07:28:48;0.40;99.90
16823;DHT22;8528;49.976;11.858;2023-01-16T07:31:15;0.40;99.90
16823;DHT22;8528;49.976;11.858;2023-01-16T07:33:42;0.40;99.90
16823;DHT22;8528;49.976;11.858;2023-01-16T07:36:09;0.40;99.90
16823;DHT22;8528;49.976;11.858;2023-01-16T07:38:36;0.40;99.90
16823;DHT22;8528;49.976;11.858;2023-01-16T07:41:03;0.40;99.90
16823;DHT22;8528;49.976;11.858;2023-01-16T07:43:29;0.40;99.90
16823;DHT22;8528;49.976;11.858;2023-01-16T07:46:18;0.40;99.90
16823;DHT22;8528;49.976;11.858;2023-01-16T07:48:45;0.30;99.90
16823;DHT22;8528;49.976;11.858;2023-01-16T07:51:12;0.30;99.90
16823;DHT22;8528;49.976;11.858;2023-01-16T07:53:39;0.30;99.90
16823;DHT22;8528;49.976;11.858;2023-01-16T07:56:36;0.30;99.90
16823;DHT22;8528;49.976;11.858;2023-01-16T07:59:03;0.30;99.90
16823;DHT22;8528;49.976;11.858;2023-01-16T08:01:30;0.30;99.90
16823;DHT22;8528;49.976;11.858;2023-01-16T08:03:57;0.30;99.90
16823;DHT22;8528;49.976;11.858;2023-01-16T08:06:24;0.30;99.90
16823;DHT22;8528;49.976;11.858;2023-01-16T08:08:51;0.30;99.90
16823;DHT22;8528;49.976;11.858;2023-01-16T08:11:17;0.40;99.90
16823;DHT22;8528;49.976;11.858;2023-01-16T08:14:03;0.50;99.90
16823;DHT22;8528;49.976;11.858;2023-01-16T08:16:31;0.60;99.90
16823;DHT22;8528;49.976;11.858;2023-01-16T08:18:58;0.60;99.90
16823;DHT22;8528;49.976;11.858;2023-01-16T08:21:25;0.70;99.90
16823;DHT22;8528;49.976;11.858;2023-01-16T08:23:52;0.90;99.90
16823;DHT22;8528;49.976;11.858;2023-01-16T08:26:19;1.00;99.90
16823;DHT22;8528;49.976;11.858;2023-01-16T08:28:46;1.10;99.90
16823;DHT22;8528;49.976;11.858;2023-01-16T08:31:13;1.20;99.90
16823;DHT22;8528;49.976;11.858;2023-01-16T08:33:42;1.10;99.90
16823;DHT22;8528;49.976;11.858;2023-01-16T08:36:11;1.20;99.90
16823;DHT22;8528;49.976;11.858;2023-01-16T08:38:38;1.40;99.90
16823;DHT22;8528;49.976;11.858;2023-01-16T08:41:05;1.70;99.90
16823;DHT22;8528;49.976;11.858;2023-01-16T08:43:52;1.90;99.90
16823;DHT22;8528;49.976;11.858;2023-01-16T08:46:37;2.20;99.90
16823;DHT22;8528;49.976;11.858;2023-01-16T08:49:23;2.50;99.90
16823;DHT22;8528;49.976;11.858;2023-01-16T08:52:11;2.80;99.90
16823;DHT22;8528;49.976;11.858;2023-01-16T08:54:38;3.20;99.90
16823;DHT22;8528;49.976;11.858;2023-01-16T08:57:05;3.40;99.90
16823;DHT22;8528;49.976;11.858;2023-01-16T08:59:32;3.40;99.90
16823;DHT22;8528;49.976;11.858;2023-01-16T09:02:01;4.00;99.90
16823;DHT22;8528;49.976;11.858;2023-01-16T09:04:29;4.80;99.90
16823;DHT22;8528;49.976;11.858;2023-01-16T09:06:56;5.50;99.90
16823;DHT22;8528;49.976;11.858;2023-01-16T09:09:23;6.40;99.90
16823;DHT22;8528;49.976;11.858;2023-01-16T09:11:55;6.40;99.90
16823;DHT22;8528;49.976;11.858;2023-01-16T09:14:41;7.20;99.90
16823;DHT22;8528;49.976;11.858;2023-01-16T09:17:08;7.50;99.90
16823;DHT22;8528;49.976;11.858;2023-01-16T09:19:35;7.20;99.90
16823;DHT22;8528;49.976;11.858;2023-01-16T09:22:03;6.70;99.90
16823;DHT22;8528;49.976;11.858;2023-01-16T09:24:33;5.70;99.90
16823;DHT22;8528;49.976;11.858;2023-01-16T09:27:01;4.80;99.90
16823;DHT22;8528;49.976;11.858;2023-01-16T09:29:29;4.30;99.90
16823;DHT22;8528;49.976;11.858;2023-01-16T09:31:56;3.80;99.90
16823;DHT22;8528;49.976;11.858;2023-01-16T09:34:23;3.50;99.90
16823;DHT22;8528;49.976;11.858;2023-01-16T09:36:50;3.30;99.90
16823;DHT22;8528;49.976;11.858;2023-01-16T09:39:17;3.20;99.90
16823;DHT22;8528;49.976;11.858;2023-01-16T09:45:03;3.80;99.90
16823;DHT22;8528;49.976;11.858;2023-01-16T09:47:32;4.00;99.90
16823;DHT22;8528;49.976;11.858;2023-01-16T09:50:15;4.40;99.90
16823;DHT22;8528;49.976;11.858;2023-01-16T09:52:47;5.80;99.90
16823;DHT22;8528;49.976;11.858;2023-01-16T09:55:42;7.20;99.90
16823;DHT22;8528;49.976;11.858;2023-01-16T09:58:55;8.40;99.90
16823;DHT22;8528;49.976;11.858;2023-01-16T10:01:34;10.00;99.90
16823;DHT22;8528;49.976;11.858;2023-01-16T10:04:18;10.80;99.10
16823;DHT22;8528;49.976;11.858;2023-01-16T10:09:38;10.30;96.30
16823;DHT22;8528;49.976;11.858;2023-01-16T10:12:10;10.50;96.10
16823;DHT22;8528;49.976;11.858;2023-01-16T10:23:48;11.50;91.20
16823;DHT22;8528;49.976;11.858;2023-01-16T10:26:29;11.30;90.80
16823;DHT22;8528;49.976;11.858;2023-01-16T10:29:18;11.70;90.20
16823;DHT22;8528;49.976;11.858;2023-01-16T10:31:58;11.90;88.80
16823;DHT22;8528;49.976;11.858;2023-01-16T10:34:39;11.20;90.20
16823;DHT22;8528;49.976;11.858;2023-01-16T10:37:19;11.30;90.80
16823;DHT22;8528;49.976;11.858;2023-01-16T10:39:47;12.70;86.20
16823;DHT22;8528;49.976;11.858;2023-01-16T10:42:21;12.70;85.60
16823;DHT22;8528;49.976;11.858;2023-01-16T10:45:17;13.50;80.50
16823;DHT22;8528;49.976;11.858;2023-01-16T10:48:04;13.50;79.20
16823;DHT22;8528;49.976;11.858;2023-01-16T10:50:56;13.80;78.40
16823;DHT22;8528;49.976;11.858;2023-01-16T10:53:23;13.70;74.10
16823;DHT22;8528;49.976;11.858;2023-01-16T10:55:51;12.60;78.00
16823;DHT22;8528;49.976;11.858;2023-01-16T10:58:22;13.40;79.30
16823;DHT22;8528;49.976;11.858;2023-01-16T11:00:52;14.20;74.20
16823;DHT22;8528;49.976;11.858;2023-01-16T11:03:23;14.60;73.10
16823;DHT22;8528;49.976;11.858;2023-01-16T11:06:11;15.50;70.60
16823;DHT22;8528;49.976;11.858;2023-01-16T11:08:38;17.10;64.00
16823;DHT22;8528;49.976;11.858;2023-01-16T11:11:09;16.80;59.50
16823;DHT22;8528;49.976;11.858;2023-01-16T11:14:03;16.20;59.60
16823;DHT22;8528;49.976;11.858;2023-01-16T11:16:50;15.30;62.00
16823;DHT22;8528;49.976;11.858;2023-01-16T11:19:43;14.60;63.90
16823;DHT22;8528;49.976;11.858;2023-01-16T11:22:25;14.40;64.00
16823;DHT22;8528;49.976;11.858;2023-01-16T11:24:56;13.30;66.10
16823;DHT22;8528;49.976;11.858;2023-01-16T11:27:29;12.40;69.50
16823;DHT22;8528;49.976;11.858;2023-01-16T11:29:57;12.80;70.70
16823;DHT22;8528;49.976;11.858;2023-01-16T11:32:25;14.00;68.40
16823;DHT22;8528;49.976;11.858;2023-01-16T11:35:25;15.10;64.40
16823;DHT22;8528;49.976;11.858;2023-01-16T11:37:56;14.80;62.60
16823;DHT22;8528;49.976;11.858;2023-01-16T11:40:33;15.20;61.40
16823;DHT22;8528;49.976;11.858;2023-01-16T11:43:12;15.80;61.00
16823;DHT22;8528;49.976;11.858;2023-01-16T11:45:57;15.60;60.10
16823;DHT22;8528;49.976;11.858;2023-01-16T11:48:40;15.50;60.60
16823;DHT22;8528;49.976;11.858;2023-01-16T11:51:18;15.50;60.00
16823;DHT22;8528;49.976;11.858;2023-01-16T11:53:46;14.90;61.50
16823;DHT22;8528;49.976;11.858;2023-01-16T11:56:41;13.60;63.40
16823;DHT22;8528;49.976;11.858;2023-01-16T12:01:59;13.00;65.50
16823;DHT22;8528;49.976;11.858;2023-01-16T12:04:50;12.40;67.10
16823;DHT22;8528;49.976;11.858;2023-01-16T12:13:14;13.00;66.60
16823;DHT22;8528;49.976;11.858;2023-01-16T12:16:24;11.40;71.10
16823;DHT22;8528;49.976;11.858;2023-01-16T12:30:15;11.00;74.30
16823;DHT22;8528;49.976;11.858;2023-01-16T12:35:37;13.00;68.40
16823;DHT22;8528;49.976;11.858;2023-01-16T12:41:13;13.00;67.10
16823;DHT22;8528;49.976;11.858;2023-01-16T12:47:07;10.70;73.10
16823;DHT22;8528;49.976;11.858;2023-01-16T12:52:42;10.00;76.70
16823;DHT22;8528;49.976;11.858;2023-01-16T12:56:04;9.30;76.40
16823;DHT22;8528;49.976;11.858;2023-01-16T12:58:43;8.80;80.60
16823;DHT22;8528;49.976;11.858;2023-01-16T13:01:35;8.60;81.30
16823;DHT22;8528;49.976;11.858;2023-01-16T13:04:28;8.10;82.90
16823;DHT22;8528;49.976;11.858;2023-01-16T13:06:57;8.60;82.30
16823;DHT22;8528;49.976;11.858;2023-01-16T13:10:21;9.20;81.60
16823;DHT22;8528;49.976;11.858;2023-01-16T13:12:46;8.80;80.00
16823;DHT22;8528;49.976;11.858;2023-01-16T13:15:36;7.60;83.40
16823;DHT22;8528;49.976;11.858;2023-01-16T13:18:16;6.80;86.40
16823;DHT22;8528;49.976;11.858;2023-01-16T13:20:47;6.30;88.80
16823;DHT22;8528;49.976;11.858;2023-01-16T13:23:39;6.00;90.90
16823;DHT22;8528;49.976;11.858;2023-01-16T13:26:11;5.80;92.10
16823;DHT22;8528;49.976;11.858;2023-01-16T13:31:30;5.60;93.50
16823;DHT22;8528;49.976;11.858;2023-01-16T13:37:05;5.60;93.50
16823;DHT22;8528;49.976;11.858;2023-01-16T13:39:58;5.50;94.40
16823;DHT22;8528;49.976;11.858;2023-01-16T13:42:29;5.40;94.50
16823;DHT22;8528;49.976;11.858;2023-01-16T13:45:16;5.30;96.10
16823;DHT22;8528;49.976;11.858;2023-01-16T13:48:04;5.30;97.10
16823;DHT22;8528;49.976;11.858;2023-01-16T13:50:31;5.20;97.70
16823;DHT22;8528;49.976;11.858;2023-01-16T13:53:04;5.10;98.50
16823;DHT22;8528;49.976;11.858;2023-01-16T13:55:36;5.10;98.90
16823;DHT22;8528;49.976;11.858;2023-01-16T13:58:14;5.00;99.70
16823;DHT22;8528;49.976;11.858;2023-01-16T14:00:43;5.00;99.90
16823;DHT22;8528;49.976;11.858;2023-01-16T14:03:18;4.90;99.90
16823;DHT22;8528;49.976;11.858;2023-01-16T14:05:53;4.90;99.90
16823;DHT22;8528;49.976;11.858;2023-01-16T14:11:28;4.70;99.90
16823;DHT22;8528;49.976;11.858;2023-01-16T14:14:20;4.70;99.90
16823;DHT22;8528;49.976;11.858;2023-01-16T14:17:11;4.60;99.90
16823;DHT22;8528;49.976;11.858;2023-01-16T14:22:26;4.50;99.90
16823;DHT22;8528;49.976;11.858;2023-01-16T14:24:57;4.40;99.90
16823;DHT22;8528;49.976;11.858;2023-01-16T14:27:34;4.30;99.90
16823;DHT22;8528;49.976;11.858;2023-01-16T14:30:05;4.20;99.90
16823;DHT22;8528;49.976;11.858;2023-01-16T14:32:35;4.20;99.90
16823;DHT22;8528;49.976;11.858;2023-01-16T14:35:15;4.20;99.90
16823;DHT22;8528;49.976;11.858;2023-01-16T14:38:03;4.20;99.90
16823;DHT22;8528;49.976;11.858;2023-01-16T14:40:37;4.10;99.90
16823;DHT22;8528;49.976;11.858;2023-01-16T14:43:33;4.20;99.90
16823;DHT22;8528;49.976;11.858;2023-01-16T14:49:42;4.00;99.90
16823;DHT22;8528;49.976;11.858;2023-01-16T14:58:02;3.80;99.90
16823;DHT22;8528;49.976;11.858;2023-01-16T15:00:34;3.80;99.90
16823;DHT22;8528;49.976;11.858;2023-01-16T15:03:10;3.80;99.90
16823;DHT22;8528;49.976;11.858;2023-01-16T15:05:55;3.80;99.90
16823;DHT22;8528;49.976;11.858;2023-01-16T15:08:35;3.70;99.90
16823;DHT22;8528;49.976;11.858;2023-01-16T15:20:25;3.50;99.90
16823;DHT22;8528;49.976;11.858;2023-01-16T15:23:30;3.40;99.90
16823;DHT22;8528;49.976;11.858;2023-01-16T15:33:37;3.40;99.90
16823;DHT22;8528;49.976;11.858;2023-01-16T15:36:25;3.40;99.90
16823;DHT22;8528;49.976;11.858;2023-01-16T15:38:56;3.30;99.90
16823;DHT22;8528;49.976;11.858;2023-01-16T15:41:29;3.30;99.90
16823;DHT22;8528;49.976;11.858;2023-01-16T15:44:20;3.40;99.90
16823;DHT22;8528;49.976;11.858;2023-01-16T15:53:17;3.20;99.90
16823;DHT22;8528;49.976;11.858;2023-01-16T15:55:52;3.30;99.90
16823;DHT22;8528;49.976;11.858;2023-01-16T15:58:22;3.30;99.90
16823;DHT22;8528;49.976;11.858;2023-01-16T16:01:01;3.20;99.90
16823;DHT22;8528;49.976;11.858;2023-01-16T16:03:49;3.20;99.90
16823;DHT22;8528;49.976;11.858;2023-01-16T16:06:17;3.20;99.90
16823;DHT22;8528;49.976;11.858;2023-01-16T16:08:47;3.20;99.90
16823;DHT22;8528;49.976;11.858;2023-01-16T16:11:21;3.20;99.90
16823;DHT22;8528;49.976;11.858;2023-01-16T16:14:14;3.10;99.90
16823;DHT22;8528;49.976;11.858;2023-01-16T16:17:28;3.10;99.90
16823;DHT22;8528;49.976;11.858;2023-01-16T16:31:17;3.00;99.90
16823;DHT22;8528;49.976;11.858;2023-01-16T16:34:03;2.90;99.90
16823;DHT22;8528;49.976;11.858;2023-01-16T16:36:37;2.90;99.90
16823;DHT22;8528;49.976;11.858;2023-01-16T16:39:27;2.90;99.90
16823;DHT22;8528;49.976;11.858;2023-01-16T16:41:56;2.80;99.90
16823;DHT22;8528;49.976;11.858;2023-01-16T16:44:46;2.80;99.90
16823;DHT22;8528;49.976;11.858;2023-01-16T16:47:30;2.80;99.90
16823;DHT22;8528;49.976;11.858;2023-01-16T16:49:58;2.70;99.90
16823;DHT22;8528;49.976;11.858;2023-01-16T16:52:43;2.70;99.90
16823;DHT22;8528;49.976;11.858;2023-01-16T16:55:30;2.70;99.90
16823;DHT22;8528;49.976;11.858;2023-01-16T16:58:01;2.70;99.90
16823;DHT22;8528;49.976;11.858;2023-01-16T17:00:29;2.70;99.90
16823;DHT22;8528;49.976;11.858;2023-01-16T17:03:12;2.70;99.90
16823;DHT22;8528;49.976;11.858;2023-01-16T17:05:41;2.70;99.90
16823;DHT22;8528;49.976;11.858;2023-01-16T17:08:15;2.70;99.90
16823;DHT22;8528;49.976;11.858;2023-01-16T17:11:12;2.70;99.90
16823;DHT22;8528;49.976;11.858;2023-01-16T17:13:40;2.80;99.90
16823;DHT22;8528;49.976;11.858;2023-01-16T17:16:21;2.80;99.90
16823;DHT22;8528;49.976;11.858;2023-01-16T17:18:56;2.90;99.90
16823;DHT22;8528;49.976;11.858;2023-01-16T17:21:23;2.90;99.90
16823;DHT22;8528;49.976;11.858;2023-01-16T17:23:50;2.90;99.90
16823;DHT22;8528;49.976;11.858;2023-01-16T17:26:17;2.90;99.90
16823;DHT22;8528;49.976;11.858;2023-01-16T17:28:43;2.90;99.90
16823;DHT22;8528;49.976;11.858;2023-01-16T17:31:18;2.90;99.90
16823;DHT22;8528;49.976;11.858;2023-01-16T17:33:46;2.90;99.90
16823;DHT22;8528;49.976;11.858;2023-01-16T17:36:19;2.90;99.90
16823;DHT22;8528;49.976;11.858;2023-01-16T17:38:46;2.90;99.90
16823;DHT22;8528;49.976;11.858;2023-01-16T17:41:21;2.90;99.90
16823;DHT22;8528;49.976;11.858;2023-01-16T17:44:00;2.80;99.90
16823;DHT22;8528;49.976;11.858;2023-01-16T17:46:45;2.80;99.90
16823;DHT22;8528;49.976;11.858;2023-01-16T17:49:12;2.70;99.90
16823;DHT22;8528;49.976;11.858;2023-01-16T17:51:39;2.70;99.90
16823;DHT22;8528;49.976;11.858;2023-01-16T17:54:05;2.70;99.90
16823;DHT22;8528;49.976;11.858;2023-01-16T17:56:32;2.80;99.90
16823;DHT22;8528;49.976;11.858;2023-01-16T17:58:59;2.70;99.90
16823;DHT22;8528;49.976;11.858;2023-01-16T18:01:34;2.70;99.90
16823;DHT22;8528;49.976;11.858;2023-01-16T18:04:04;2.70;99.90
16823;DHT22;8528;49.976;11.858;2023-01-16T18:06:36;2.70;99.90
16823;DHT22;8528;49.976;11.858;2023-01-16T18:09:04;2.70;99.90
16823;DHT22;8528;49.976;11.858;2023-01-16T18:11:39;2.70;99.90
16823;DHT22;8528;49.976;11.858;2023-01-16T18:14:25;2.70;99.90
16823;DHT22;8528;49.976;11.858;2023-01-16T18:17:12;2.80;99.90
16823;DHT22;8528;49.976;11.858;2023-01-16T18:19:51;2.80;99.90
16823;DHT22;8528;49.976;11.858;2023-01-16T18:22:23;2.70;99.90
16823;DHT22;8528;49.976;11.858;2023-01-16T18:24:50;2.70;99.90
16823;DHT22;8528;49.976;11.858;2023-01-16T18:27:18;2.70;99.90
16823;DHT22;8528;49.976;11.858;2023-01-16T18:29:45;2.60;99.90
16823;DHT22;8528;49.976;11.858;2023-01-16T18:32:13;2.60;99.90
16823;DHT22;8528;49.976;11.858;2023-01-16T18:35:03;2.60;99.90
16823;DHT22;8528;49.976;11.858;2023-01-16T18:40:13;2.60;99.90
16823;DHT22;8528;49.976;11.858;2023-01-16T18:42:59;2.60;99.90
16823;DHT22;8528;49.976;11.858;2023-01-16T18:45:44;2.60;99.90
16823;DHT22;8528;49.976;11.858;2023-01-16T18:48:30;2.60;99.90
16823;DHT22;8528;49.976;11.858;2023-01-16T18:51:17;2.60;99.90
16823;DHT22;8528;49.976;11.858;2023-01-16T18:54:15;2.60;99.90
16823;DHT22;8528;49.976;11.858;2023-01-16T18:57:01;2.60;99.90